Time;durP1;ratioP1;P1;durP2;ratioP2;P2;SDS_P1;SDS_P2;PMS_P1;PMS_P2;Temp;Humidity;BMP_temperature;BMP_pressure;BME280_temperature;BME280_humidity;BME280_pressure;Samples;Min_cycle;Max_cycle;Signal;HPM_P1;HPM_P2
2022/10/07 16:36:13;;;;;;;0.30;0.30;;;;;;;17.18;50.67;101292.44;5225359;28;20906;-79
2022/10/07 16:38:47;;;;;;;1.02;1.02;;;;;;;17.19;50.69;101288.00;5187188;28;20428;-79
2022/10/07 16:41:19;;;;;;;0.50;0.50;;;;;;;17.17;50.76;101282.75;5179794;28;20032;-80
2022/10/07 16:43:49;;;;;;;0.93;0.93;;;;;;;17.16;51.45;101286.31;5182942;28;20041;-79
2022/10/07 16:46:23;;;;;;;0.30;0.30;;;;;;;17.15;50.92;101289.91;5191424;28;20024;-79
2022/10/07 16:48:54;;;;;;;2.35;0.98;;;;;;;17.19;51.85;101288.00;5196099;28;20030;-79
2022/10/07 16:51:27;;;;;;;0.57;0.57;;;;;;;17.13;51.40;101294.44;5191933;28;20283;-79
2022/10/07 16:54:12;;;;;;;1.70;1.38;;;;;;;17.09;51.43;101287.53;5169578;28;20084;-78
2022/10/07 16:56:48;;;;;;;0.75;0.73;;;;;;;17.07;52.02;101286.75;5206558;28;20029;-79
2022/10/07 16:59:25;;;;;;;1.75;1.10;;;;;;;17.05;52.01;101286.81;5200349;28;20026;-78
2022/10/07 17:02:01;;;;;;;1.00;1.00;;;;;;;16.99;52.17;101280.00;5142681;28;20041;-79
2022/10/07 17:04:31;;;;;;;0.82;0.82;;;;;;;16.99;52.51;101280.00;5187034;28;20028;-80
2022/10/07 17:07:04;;;;;;;1.33;1.10;;;;;;;17.01;52.39;101289.69;5146185;28;20022;-79
2022/10/07 17:09:35;;;;;;;0.50;0.50;;;;;;;16.99;52.78;101276.50;5183790;28;20036;-80
2022/10/07 17:12:09;;;;;;;0.35;0.35;;;;;;;16.99;52.85;101282.66;5212690;28;20507;-80
2022/10/07 17:14:40;;;;;;;1.17;1.05;;;;;;;16.98;53.39;101286.22;5197005;28;20033;-78
2022/10/07 17:17:10;;;;;;;1.27;1.17;;;;;;;16.96;53.10;101285.47;5219984;28;20120;-79
2022/10/07 17:19:41;;;;;;;4.30;0.95;;;;;;;16.91;53.17;101291.84;5178637;28;20029;-79
2022/10/07 17:22:12;;;;;;;2.55;1.08;;;;;;;16.89;53.41;101286.63;5171130;28;20041;-77
2022/10/07 17:24:43;;;;;;;0.55;0.55;;;;;;;16.81;53.55;101286.97;5187634;28;20032;-78
2022/10/07 17:27:13;;;;;;;0.85;0.85;;;;;;;16.78;53.62;101286.25;5186258;28;20044;-78
2022/10/07 17:29:44;;;;;;;0.52;0.52;;;;;;;16.75;53.79;101284.59;5180923;28;20041;-77
2022/10/07 17:32:15;;;;;;;0.55;0.55;;;;;;;16.68;53.62;101284.00;5182392;28;20087;-78
2022/10/07 17:34:46;;;;;;;0.80;0.50;;;;;;;16.66;53.92;101285.00;5176257;28;20045;-79
2022/10/07 17:37:16;;;;;;;1.38;0.75;;;;;;;16.65;54.04;101280.63;5200732;28;20041;-79
2022/10/07 17:39:47;;;;;;;2.00;1.30;;;;;;;16.65;53.88;101284.13;5203798;28;20314;-81
2022/10/07 17:42:17;;;;;;;1.23;1.13;;;;;;;16.60;54.15;101290.56;5186591;28;20684;-81
2022/10/07 17:44:48;;;;;;;1.10;1.02;;;;;;;16.57;53.88;101286.22;5153687;28;20030;-80
2022/10/07 17:47:21;;;;;;;0.95;0.95;;;;;;;16.53;54.30;101289.97;5160705;28;20030;-80
2022/10/07 17:49:53;;;;;;;27.48;2.20;;;;;;;16.48;54.23;101286.66;5151956;28;20029;-81
2022/10/07 17:52:25;;;;;;;0.95;0.95;;;;;;;16.44;54.56;101295.66;5152280;28;20037;-81
2022/10/07 17:54:55;;;;;;;3.63;0.82;;;;;;;16.33;54.75;101283.72;5169258;28;20077;-80
2022/10/07 17:57:26;;;;;;;0.90;0.85;;;;;;;16.30;54.38;101291.81;5139061;28;20054;-80
2022/10/07 17:59:57;;;;;;;0.80;0.80;;;;;;;16.28;54.57;101290.16;5137795;28;20192;-79
2022/10/07 18:02:27;;;;;;;1.20;1.10;;;;;;;16.21;54.64;101287.75;5173514;28;20053;-80
2022/10/07 18:04:59;;;;;;;0.55;0.55;;;;;;;16.17;54.75;101291.47;5162218;28;20149;-79
2022/10/07 18:07:30;;;;;;;0.85;0.80;;;;;;;16.18;54.74;101292.31;5179611;28;20030;-79
2022/10/07 18:10:01;;;;;;;1.52;1.42;;;;;;;16.16;54.94;101296.78;5161810;28;20076;-78
2022/10/07 18:15:22;;;;;;;0.55;0.52;;;;;;;16.07;54.78;101302.50;5179621;28;20045;-81
2022/10/07 18:17:53;;;;;;;0.52;0.52;;;;;;;15.97;54.74;101294.03;5172187;28;21114;-78
2022/10/07 18:20:27;;;;;;;1.40;0.82;;;;;;;15.91;55.03;101300.44;5230061;28;20044;-77
2022/10/07 18:22:57;;;;;;;0.90;0.90;;;;;;;15.92;54.71;101293.38;5190868;28;20037;-78
2022/10/07 18:25:28;;;;;;;0.40;0.40;;;;;;;15.87;55.28;101290.91;5184455;28;20022;-78
2022/10/07 18:28:01;;;;;;;4.57;1.60;;;;;;;15.76;55.22;101298.38;5164483;28;20152;-79
2022/10/07 18:30:31;;;;;;;0.73;0.73;;;;;;;15.73;55.32;101292.31;5149094;28;20041;-79
2022/10/07 18:33:02;;;;;;;0.45;0.45;;;;;;;15.70;55.44;101289.78;5145318;28;20041;-77
2022/10/07 18:35:32;;;;;;;3.17;0.95;;;;;;;15.67;55.49;101291.69;5195302;28;20038;-78
2022/10/07 18:38:09;;;;;;;0.70;0.70;;;;;;;15.63;55.42;101288.31;5172655;28;20097;-79
2022/10/07 18:40:39;;;;;;;1.00;1.00;;;;;;;15.55;55.43;101299.16;5199206;28;20066;-78
2022/10/07 18:43:10;;;;;;;13.30;2.92;;;;;;;15.50;55.61;101294.97;5183761;28;20037;-79
2022/10/07 18:45:41;;;;;;;1.15;1.10;;;;;;;15.46;55.50;101288.94;5178432;28;20033;-78
2022/10/07 18:48:12;;;;;;;1.05;0.93;;;;;;;15.46;55.45;101288.09;5196018;28;20049;-77
2022/10/07 18:50:49;;;;;;;9.85;1.55;;;;;;;15.41;55.84;101289.13;5176739;28;20123;-77
2022/10/07 18:53:28;;;;;;;1.50;1.40;;;;;;;15.40;55.68;101286.53;5165460;28;20086;-79
2022/10/07 18:56:11;;;;;;;1.05;1.05;;;;;;;15.41;55.75;101282.97;5190294;28;20449;-79
2022/10/07 18:58:45;;;;;;;0.30;0.30;;;;;;;15.39;55.61;101285.69;5187191;28;20049;-78
2022/10/07 19:01:19;;;;;;;2.08;0.98;;;;;;;15.39;55.73;101287.44;5173209;28;20034;-78
2022/10/07 19:04:00;;;;;;;0.20;0.20;;;;;;;15.31;55.95;101289.53;5171015;28;20037;-79
2022/10/07 19:06:34;;;;;;;3.72;1.95;;;;;;;15.25;55.66;101278.28;5193060;28;20656;-78
2022/10/07 19:09:12;;;;;;;0.35;0.35;;;;;;;15.22;56.07;101282.81;5194212;28;20049;-79
2022/10/07 19:11:46;;;;;;;0.60;0.60;;;;;;;15.21;56.16;101281.09;5182273;28;20040;-80
2022/10/07 19:14:18;;;;;;;0.55;0.55;;;;;;;15.20;56.15;101284.66;5146306;28;20034;-79
2022/10/07 19:16:49;;;;;;;1.15;1.02;;;;;;;15.09;56.10;101279.78;5160892;28;20025;-80
2022/10/07 19:19:21;;;;;;;6.68;1.85;;;;;;;15.05;56.20;101279.03;5186949;28;20037;-78
2022/10/07 19:21:56;;;;;;;0.75;0.75;;;;;;;14.97;56.12;101283.72;5158521;28;20048;-80
2022/10/07 19:27:24;;;;;;;1.00;1.00;;;;;;;14.90;56.25;101282.22;5165980;28;20062;-80
2022/10/07 19:29:55;;;;;;;2.38;0.73;;;;;;;14.88;56.24;101279.63;5165868;28;20088;-79
2022/10/07 19:32:25;;;;;;;0.98;0.93;;;;;;;14.89;56.18;101284.00;5162336;28;20069;-80
2022/10/07 19:34:59;;;;;;;0.30;0.30;;;;;;;14.88;56.12;101284.06;5173375;28;20046;-79
2022/10/07 19:37:29;;;;;;;0.30;0.30;;;;;;;14.82;55.75;101279.00;5149017;28;20048;-78
2022/10/07 19:40:00;;;;;;;0.85;0.85;;;;;;;14.79;55.80;101282.63;5178784;28;20596;-80
2022/10/07 19:42:32;;;;;;;2.97;1.92;;;;;;;14.74;55.89;101280.16;5146058;28;20120;-79
2022/10/07 19:45:05;;;;;;;2.80;1.85;;;;;;;14.67;56.15;101281.25;5178523;28;20045;-79
2022/10/07 19:47:35;;;;;;;5.40;1.52;;;;;;;14.63;56.44;101279.63;5155284;28;20108;-79
2022/10/07 19:50:09;;;;;;;0.45;0.45;;;;;;;14.62;56.22;101293.75;5176618;28;20110;-79
2022/10/07 19:52:42;;;;;;;0.43;0.43;;;;;;;14.56;56.21;101284.25;5148395;28;20038;-80
2022/10/07 19:55:13;;;;;;;1.48;1.38;;;;;;;14.56;56.01;101293.97;5146440;28;20336;-79
2022/10/07 19:57:44;;;;;;;1.15;0.68;;;;;;;14.54;56.56;101286.09;5178291;28;20038;-79
2022/10/07 20:00:14;;;;;;;0.30;0.30;;;;;;;14.47;56.21;101296.00;5158546;28;20105;-79
2022/10/07 20:02:47;;;;;;;0.85;0.85;;;;;;;14.53;56.37;101299.34;5187119;28;20029;-77
2022/10/07 20:05:19;;;;;;;0.40;0.40;;;;;;;14.55;56.86;101295.72;5192839;28;20045;-80
2022/10/07 20:07:50;;;;;;;10.93;4.13;;;;;;;14.55;57.19;101301.00;5181316;28;20041;-79
2022/10/07 20:10:22;;;;;;;2.42;1.42;;;;;;;14.50;56.85;101299.47;5181609;28;20140;-79
2022/10/07 20:12:56;;;;;;;1.75;0.73;;;;;;;14.43;57.02;101289.09;5157964;28;20041;-79
2022/10/07 20:15:26;;;;;;;;;;;;;;;14.38;57.76;101295.47;5184578;28;20033;-80
2022/10/07 20:17:57;;;;;;;1.02;1.02;;;;;;;14.27;58.04;101290.50;5182519;28;19913;-80
2022/10/07 20:20:27;;;;;;;0.90;0.90;;;;;;;14.27;58.30;101291.41;5167233;28;20036;-81
2022/10/07 20:22:58;;;;;;;0.85;0.85;;;;;;;14.31;57.63;101289.50;5180674;28;20619;-78
2022/10/07 20:25:29;;;;;;;1.27;0.65;;;;;;;14.19;57.60;101289.91;5168961;28;20018;-78
2022/10/07 20:27:59;;;;;;;0.32;0.32;;;;;;;14.20;57.41;101286.34;5204327;28;20090;-79
2022/10/07 20:30:30;;;;;;;1.17;1.17;;;;;;;14.21;57.15;101294.25;5201243;28;20026;-80
2022/10/07 20:33:18;;;;;;;0.63;0.63;;;;;;;14.23;57.24;101288.91;5177429;28;20033;-78
2022/10/07 20:35:51;;;;;;;0.43;0.43;;;;;;;14.21;57.39;101288.97;5183577;28;20100;-78
2022/10/07 20:38:22;;;;;;;7.90;2.53;;;;;;;14.23;57.31;101288.91;5160939;28;20166;-79
2022/10/07 20:43:41;;;;;;;0.52;0.52;;;;;;;14.24;57.27;101290.63;5198857;28;20049;-80
2022/10/07 20:46:12;;;;;;;0.90;0.88;;;;;;;14.23;57.46;101287.13;5182428;28;20036;-78
2022/10/07 20:48:43;;;;;;;0.52;0.52;;;;;;;14.21;57.41;101293.38;5184894;28;20030;-78
2022/10/07 20:51:15;;;;;;;0.30;0.30;;;;;;;14.19;57.30;101289.91;5169866;28;20030;-78
2022/10/07 20:53:47;;;;;;;4.20;2.03;;;;;;;14.12;57.48;101290.13;5174350;28;20052;-80
2022/10/07 20:56:24;;;;;;;1.15;1.05;;;;;;;14.14;57.23;101283.03;5155098;28;20589;-78
2022/10/07 20:58:55;;;;;;;1.00;1.00;;;;;;;14.09;57.00;101290.22;5183356;28;20407;-78
2022/10/07 21:01:27;;;;;;;0.50;0.50;;;;;;;14.04;57.14;101286.88;5179212;28;20129;-79
2022/10/07 21:03:57;;;;;;;0.85;0.50;;;;;;;13.99;57.14;101292.28;5203985;28;20037;-80
2022/10/07 21:06:31;;;;;;;4.78;1.85;;;;;;;13.99;57.38;101288.81;5207225;28;20034;-78
2022/10/07 21:09:03;;;;;;;0.38;0.38;;;;;;;13.94;57.38;101293.34;5182919;28;20060;-79
2022/10/07 21:11:34;;;;;;;2.72;0.60;;;;;;;13.90;57.84;101283.81;5177022;28;20025;-78
2022/10/07 21:14:09;;;;;;;0.40;0.40;;;;;;;13.94;57.68;101278.41;5175993;28;20072;-79
2022/10/07 21:16:40;;;;;;;0.38;0.38;;;;;;;13.88;57.33;101283.00;5165172;28;20692;-79
2022/10/07 21:19:17;;;;;;;2.72;2.50;;;;;;;13.83;57.50;101284.03;5145297;28;20054;-79
2022/10/07 21:21:48;;;;;;;5.25;2.05;;;;;;;13.80;57.60;101278.84;5173934;28;20041;-78
2022/10/07 21:24:22;;;;;;;0.32;0.32;;;;;;;13.78;57.77;101280.66;5186804;28;20033;-76
2022/10/07 21:26:53;;;;;;;0.30;0.30;;;;;;;13.80;57.46;101273.56;5189596;28;20033;-76
2022/10/07 21:29:24;;;;;;;0.68;0.45;;;;;;;13.79;57.26;101276.25;5184439;28;20042;-79
2022/10/07 21:31:55;;;;;;;4.18;2.75;;;;;;;13.76;57.69;101269.28;5180903;28;20068;-78
2022/10/07 21:34:27;;;;;;;0.55;0.55;;;;;;;13.75;57.53;101270.22;5165813;28;20030;-78
2022/10/07 21:36:57;;;;;;;0.40;0.40;;;;;;;13.73;57.59;101271.16;5184707;28;20311;-77
2022/10/07 21:39:28;;;;;;;1.20;1.02;;;;;;;13.72;57.80;101267.66;5168407;28;20069;-78
2022/10/07 21:42:01;;;;;;;;;;;;;;;13.71;57.84;101262.44;5162924;28;20037;-78
2022/10/07 21:44:41;;;;;;;1.92;0.77;;;;;;;13.66;58.19;101265.22;5161705;28;20361;-79
2022/10/07 21:47:12;;;;;;;0.30;0.30;;;;;;;13.65;58.00;101258.22;5185602;28;20049;-79
2022/10/07 21:49:44;;;;;;;0.95;0.77;;;;;;;13.59;58.17;101256.63;5180188;28;20697;-78
2022/10/07 21:52:14;;;;;;;1.67;1.20;;;;;;;13.68;58.12;101256.34;5198831;28;20036;-77
2022/10/07 21:54:48;;;;;;;0.45;0.45;;;;;;;13.63;58.31;101250.38;5173112;28;20088;-78
2022/10/07 21:57:19;;;;;;;0.57;0.57;;;;;;;13.54;58.07;101246.22;5180615;28;20034;-77
2022/10/07 21:59:51;;;;;;;0.68;0.68;;;;;;;13.57;58.67;101244.41;5181622;28;20128;-78
2022/10/07 22:02:22;;;;;;;0.73;0.73;;;;;;;13.58;58.70;101246.16;5175472;28;20240;-78
2022/10/07 22:04:53;;;;;;;11.50;1.20;;;;;;;13.58;58.28;101246.16;5175126;28;20046;-79
2022/10/07 22:10:13;;;;;;;2.20;0.82;;;;;;;13.53;58.65;101243.66;5161186;28;20038;-78
2022/10/07 22:12:43;;;;;;;0.50;0.50;;;;;;;13.47;59.67;101244.69;5160908;28;20442;-78
2022/10/07 22:15:15;;;;;;;0.50;0.50;;;;;;;13.57;58.30;101236.50;5159182;28;20151;-78
2022/10/07 22:17:46;;;;;;;1.48;1.38;;;;;;;13.47;59.21;101236.78;5171233;28;20068;-77
2022/10/07 22:20:16;;;;;;;0.85;0.85;;;;;;;13.51;58.40;101229.66;5197863;28;20018;-78
2022/10/07 22:22:47;;;;;;;1.60;1.27;;;;;;;13.47;58.72;101230.66;5183171;28;20112;-79
2022/10/07 22:25:19;;;;;;;1.00;0.98;;;;;;;13.44;58.80;101228.97;5177332;28;20090;-79
2022/10/07 22:27:49;;;;;;;1.15;1.15;;;;;;;13.49;58.62;101232.34;5171857;28;20057;-79
2022/10/07 22:30:20;;;;;;;0.88;0.82;;;;;;;13.39;60.13;101230.91;5181715;28;20030;-78
2022/10/07 22:32:50;;;;;;;2.08;1.48;;;;;;;13.47;59.10;101230.66;5173359;28;20040;-79
2022/10/07 22:35:28;;;;;;;0.73;0.73;;;;;;;13.41;58.91;101228.19;5155126;28;20029;-79
2022/10/07 22:38:00;;;;;;;1.75;1.33;;;;;;;13.42;58.83;101230.81;5175966;28;20122;-79
2022/10/07 22:40:30;;;;;;;0.43;0.43;;;;;;;13.51;59.01;101230.50;5178835;28;20091;-78
2022/10/07 22:43:21;;;;;;;0.32;0.32;;;;;;;13.44;58.95;101226.34;5159328;28;20121;-78
2022/10/07 22:45:57;;;;;;;2.08;0.82;;;;;;;13.43;58.81;101227.25;5179706;28;20446;-79
2022/10/07 22:48:30;;;;;;;0.77;0.77;;;;;;;13.44;58.86;101228.13;5159622;28;20096;-79
2022/10/07 22:51:05;;;;;;;0.40;0.40;;;;;;;13.43;59.07;101227.25;5164115;28;20037;-78
2022/10/07 22:53:45;;;;;;;0.45;0.45;;;;;;;13.36;59.53;101226.56;5191132;28;20048;-79
2022/10/07 22:56:16;;;;;;;1.88;1.77;;;;;;;13.27;59.92;101218.03;5204506;28;20037;-77
2022/10/07 22:58:53;;;;;;;7.32;2.15;;;;;;;13.31;59.32;101222.31;5200921;28;20117;-78
2022/10/07 23:01:24;;;;;;;0.60;0.60;;;;;;;13.30;59.25;101216.22;5159691;28;20038;-78
2022/10/07 23:03:56;;;;;;;0.52;0.52;;;;;;;13.29;59.27;101214.47;5179222;28;20107;-78
2022/10/07 23:06:27;;;;;;;0.40;0.40;;;;;;;13.34;58.99;101215.19;5176865;28;20082;-78
2022/10/07 23:08:58;;;;;;;1.25;1.15;;;;;;;13.29;59.58;101213.59;5152021;28;20452;-80
2022/10/07 23:11:29;;;;;;;0.43;0.43;;;;;;;13.27;59.19;101218.03;5172790;28;20037;-78
2022/10/07 23:13:59;;;;;;;10.13;1.20;;;;;;;13.20;60.09;101210.34;5192843;28;20050;-78
2022/10/07 23:16:32;;;;;;;1.95;1.73;;;;;;;13.22;58.95;101216.44;5161189;28;20814;-78
2022/10/07 23:19:03;;;;;;;0.73;0.73;;;;;;;13.25;58.80;101210.19;5157547;28;20041;-76
2022/10/07 23:21:34;;;;;;;0.85;0.73;;;;;;;13.29;59.48;101216.22;5168398;28;20034;-76
2022/10/07 23:24:05;;;;;;;7.50;1.42;;;;;;;13.28;59.35;101206.59;5176472;28;20047;-77
2022/10/07 23:26:39;;;;;;;0.40;0.40;;;;;;;13.20;59.13;101206.84;5172528;28;20029;-78
2022/10/07 23:29:10;;;;;;;0.85;0.85;;;;;;;13.21;59.29;101201.53;5180603;28;20060;-78
2022/10/07 23:31:41;;;;;;;0.30;0.30;;;;;;;13.16;60.24;101208.72;5160796;28;20030;-78
2022/10/07 23:34:12;;;;;;;0.95;0.90;;;;;;;13.15;59.34;101203.47;5144391;28;20431;-77
2022/10/07 23:36:43;;;;;;;4.30;1.85;;;;;;;13.12;59.50;101201.78;5178338;28;20034;-77
2022/10/07 23:39:14;;;;;;;0.40;0.40;;;;;;;13.09;59.57;101199.28;5174026;28;20038;-77
2022/10/07 23:41:44;;;;;;;6.97;0.45;;;;;;;13.10;59.46;101203.59;5172143;28;20029;-78
2022/10/07 23:44:15;;;;;;;0.70;0.70;;;;;;;13.14;59.38;101204.41;5173592;28;20046;-76
2022/10/07 23:46:45;;;;;;;0.40;0.40;;;;;;;13.11;59.14;101202.69;5173289;28;20049;-77
2022/10/07 23:49:16;;;;;;;0.30;0.30;;;;;;;13.08;59.61;101200.19;5174749;28;20037;-77
2022/10/07 23:51:46;;;;;;;5.20;0.98;;;;;;;13.09;59.22;101201.91;5157722;28;20034;-80
2022/10/07 23:54:17;;;;;;;0.30;0.30;;;;;;;13.13;59.27;101203.53;5186703;28;20818;-79
2022/10/07 23:56:50;;;;;;;0.50;0.50;;;;;;;13.03;59.57;101195.03;5187280;28;20037;-79
2022/10/07 23:59:22;;;;;;;1.77;1.42;;;;;;;13.04;59.17;101196.78;5172906;28;20625;-78
